Time;durP1;ratioP1;P1;durP2;ratioP2;P2;SDS_P1;SDS_P2;PMS_P1;PMS_P2;Temp;Humidity;BMP_temperature;BMP_pressure;BME280_temperature;BME280_humidity;BME280_pressure;Samples;Min_cycle;Max_cycle;Signal;HPM_P1;HPM_P2
2021/12/08 12:07:39;;;;;;;5.27;4.03;;;;;;;2.77;100.00;97448.16;5176341;27;1588964;-79
2021/12/08 12:10:09;;;;;;;3.90;2.97;;;;;;;3.23;100.00;97439.47;5167422;27;39223;-82
2021/12/08 12:12:39;;;;;;;4.47;3.80;;;;;;;3.72;100.00;97430.59;5211471;27;42423;-79
2021/12/08 12:15:10;;;;;;;3.60;3.13;;;;;;;3.98;100.00;97414.22;5192187;27;42790;-79
2021/12/08 12:17:38;;;;;;;5.53;3.23;;;;;;;4.37;98.71;97438.97;5175382;27;42409;-83
2021/12/08 12:20:09;;;;;;;3.40;2.77;;;;;;;4.59;95.53;97429.72;5174650;27;38925;-81
2021/12/08 12:22:49;;;;;;;3.37;2.70;;;;;;;4.77;93.22;97430.38;5174536;27;40660;-80
2021/12/08 12:25:34;;;;;;;3.00;2.70;;;;;;;4.87;91.15;97421.00;5191666;27;44231;-79
2021/12/08 12:28:15;;;;;;;3.37;2.53;;;;;;;4.98;90.17;97425.56;5171442;27;41159;-81
2021/12/08 12:30:52;;;;;;;4.17;3.53;;;;;;;5.06;89.15;97431.19;5171154;27;38784;-79
2021/12/08 12:33:23;;;;;;;2.67;2.30;;;;;;;5.09;87.56;97423.09;5170841;27;40593;-81
2021/12/08 12:35:52;;;;;;;4.13;2.83;;;;;;;5.14;87.24;97415.78;5170448;27;41473;-87
2021/12/08 12:38:35;;;;;;;3.00;2.37;;;;;;;5.18;86.97;97411.22;5174097;27;42276;-82
2021/12/08 12:41:05;;;;;;;3.23;2.83;;;;;;;5.10;86.91;97390.69;5192575;27;40049;-81
2021/12/08 12:43:38;;;;;;;3.90;2.50;;;;;;;5.30;86.41;97416.50;5174857;27;42840;-80
2021/12/08 12:46:11;;;;;;;2.50;2.20;;;;;;;5.27;85.47;97400.94;5191943;27;42897;-81
2021/12/08 12:48:39;;;;;;;4.40;2.30;;;;;;;5.40;85.39;97414.13;5180816;27;42947;-80
2021/12/08 12:51:08;;;;;;;3.37;2.57;;;;;;;5.44;85.25;97406.91;5170592;27;38927;-77
2021/12/08 12:53:45;;;;;;;2.97;2.60;;;;;;;5.47;84.68;97404.06;5199135;27;41431;-78
2021/12/08 12:56:16;;;;;;;3.13;2.63;;;;;;;5.49;84.99;97399.56;5184163;27;43151;-79
2021/12/08 12:58:49;;;;;;;3.53;2.63;;;;;;;5.51;84.44;97406.41;5154015;27;41267;-82
2021/12/08 13:01:20;;;;;;;4.20;2.50;;;;;;;5.46;83.65;97395.34;5173129;27;39048;-83
2021/12/08 13:03:57;;;;;;;3.00;2.43;;;;;;;5.54;83.71;97394.84;5175042;27;40647;-85
2021/12/08 13:06:47;;;;;;;2.90;2.47;;;;;;;5.44;83.22;97378.84;5173377;27;43094;-81
2021/12/08 13:09:42;;;;;;;4.40;2.97;;;;;;;5.54;82.71;97394.84;5191116;27;42606;-82
2021/12/08 13:12:12;;;;;;;4.40;2.87;;;;;;;5.53;83.33;97394.00;5190885;27;40182;-79
2021/12/08 13:14:42;;;;;;;4.60;3.57;;;;;;;5.52;82.29;97396.75;5170374;27;40619;-80
2021/12/08 13:17:16;;;;;;;5.17;2.70;;;;;;;5.49;82.47;97400.41;5187856;27;43406;-83
2021/12/08 13:19:46;;;;;;;4.80;3.37;;;;;;;5.38;81.97;97385.34;5159783;27;42351;-78
2021/12/08 13:22:45;;;;;;;3.83;2.60;;;;;;;5.41;81.82;97414.03;5160683;27;39853;-80
2021/12/08 13:25:52;;;;;;;3.00;2.70;;;;;;;5.35;81.74;97409.16;5176506;27;40849;-84
2021/12/08 13:28:25;;;;;;;4.30;2.70;;;;;;;5.32;82.08;97411.97;5176240;27;41860;-78
2021/12/08 13:31:06;;;;;;;3.27;2.70;;;;;;;5.34;82.24;97404.84;5160318;27;41026;-80
2021/12/08 13:33:38;;;;;;;4.00;2.93;;;;;;;5.38;82.76;97397.63;5159463;27;39089;-80
2021/12/08 13:36:31;;;;;;;4.17;3.37;;;;;;;5.39;82.45;97407.19;5157299;27;40675;-78
2021/12/08 13:39:24;;;;;;;3.47;3.10;;;;;;;5.38;82.06;97406.34;5156214;27;42683;-79
2021/12/08 13:42:11;;;;;;;6.67;4.10;;;;;;;5.26;82.17;97382.69;5138205;27;41066;-85
2021/12/08 13:44:41;;;;;;;4.37;3.13;;;;;;;5.37;82.07;97409.06;5157836;27;39115;-83
2021/12/08 13:47:22;;;;;;;4.03;3.10;;;;;;;5.24;81.72;97379.31;5194388;27;42389;-83
2021/12/08 13:49:51;;;;;;;4.83;3.27;;;;;;;5.34;81.66;97389.09;5176368;27;41607;-80
2021/12/08 13:52:22;;;;;;;3.60;2.87;;;;;;;5.33;81.65;97381.31;5159098;27;42094;-81
2021/12/08 13:54:52;;;;;;;3.03;2.30;;;;;;;5.33;81.19;97368.19;5158974;27;38975;-78
2021/12/08 13:57:34;;;;;;;5.10;2.90;;;;;;;5.30;81.36;97355.31;5159551;27;40480;-82
2021/12/08 14:00:07;;;;;;;3.17;2.87;;;;;;;5.22;80.84;97358.41;5176533;27;41753;-83
2021/12/08 14:02:47;;;;;;;4.73;3.60;;;;;;;5.25;81.35;97371.34;5158996;27;40905;-82
2021/12/08 14:05:18;;;;;;;5.87;4.00;;;;;;;5.19;80.32;97371.75;5157735;27;39341;-85
2021/12/08 14:07:51;;;;;;;4.10;3.67;;;;;;;5.16;80.39;97373.72;5176093;27;42746;-80
2021/12/08 14:10:24;;;;;;;6.37;4.37;;;;;;;5.11;80.17;97376.63;5195053;27;42668;-80
